createdAt,value
2018-08-06T00:00:35.644Z,1.90
2018-08-06T00:03:04.434Z,1.60
2018-08-06T00:05:32.942Z,1.70
2018-08-06T00:08:02.019Z,2.30
2018-08-06T00:10:30.653Z,1.63
2018-08-06T00:12:58.845Z,1.73
2018-08-06T00:15:27.362Z,1.90
2018-08-06T00:17:56.147Z,1.77
2018-08-06T00:20:24.643Z,1.53
2018-08-06T00:22:53.170Z,2.37
2018-08-06T00:25:21.994Z,1.57
2018-08-06T00:27:50.558Z,1.77
2018-08-06T00:30:20.335Z,1.80
2018-08-06T00:32:49.676Z,1.70
2018-08-06T00:35:18.758Z,1.53
2018-08-06T00:37:47.307Z,1.70
2018-08-06T00:40:17.519Z,1.30
2018-08-06T00:42:46.634Z,2.10
2018-08-06T00:45:16.938Z,1.50
2018-08-06T00:47:46.249Z,1.80
2018-08-06T00:50:14.793Z,1.73
2018-08-06T00:52:43.393Z,1.73
2018-08-06T00:55:14.231Z,1.50
2018-08-06T00:57:42.947Z,1.60
2018-08-06T01:00:14.600Z,2.10
2018-08-06T01:02:43.139Z,1.50
2018-08-06T01:05:12.453Z,1.57
2018-08-06T01:07:41.390Z,1.80
2018-08-06T01:10:18.346Z,1.70
2018-08-06T01:12:46.910Z,1.60
2018-08-06T01:15:18.518Z,1.80
2018-08-06T01:17:47.026Z,1.70
2018-08-06T01:20:15.814Z,1.60
2018-08-06T01:22:45.124Z,1.93
2018-08-06T01:25:14.143Z,2.00
2018-08-06T01:27:42.719Z,1.87
2018-08-06T01:30:12.986Z,1.90
2018-08-06T01:32:41.655Z,1.60
2018-08-06T01:35:10.882Z,1.57
2018-08-06T01:37:39.519Z,1.70
2018-08-06T01:40:11.633Z,1.70
2018-08-06T01:42:40.428Z,1.77
2018-08-06T01:45:09.304Z,1.80
2018-08-06T01:47:38.316Z,1.73
2018-08-06T01:50:07.467Z,1.80
2018-08-06T01:52:35.974Z,2.20
2018-08-06T01:55:04.571Z,1.47
2018-08-06T01:57:33.100Z,1.90
2018-08-06T02:00:01.609Z,1.83
2018-08-06T02:02:30.121Z,1.70
2018-08-06T02:04:58.610Z,1.80
2018-08-06T02:07:27.364Z,1.70
2018-08-06T02:09:55.839Z,1.83
2018-08-06T02:12:24.650Z,2.10
2018-08-06T02:14:53.102Z,1.77
2018-08-06T02:17:21.604Z,1.90
2018-08-06T02:19:50.088Z,1.60
2018-08-06T02:22:18.823Z,1.70
2018-08-06T02:24:47.413Z,1.67
2018-08-06T02:27:15.977Z,1.77
2018-08-06T02:29:44.468Z,1.70
2018-08-06T02:32:12.968Z,1.93
2018-08-06T02:34:41.515Z,1.50
2018-08-06T02:37:10.003Z,1.90
2018-08-06T02:39:38.468Z,2.00
2018-08-06T02:42:07.056Z,1.50
2018-08-06T02:44:35.623Z,1.90
2018-08-06T02:47:04.153Z,1.53
2018-08-06T02:49:32.666Z,1.67
2018-08-06T02:52:01.167Z,2.30
2018-08-06T02:54:30.007Z,1.90
2018-08-06T02:56:58.562Z,2.10
2018-08-06T02:59:27.091Z,1.53
2018-08-06T03:01:55.639Z,1.83
2018-08-06T03:04:24.117Z,3.63
2018-08-06T03:06:52.671Z,1.50
2018-08-06T03:09:21.491Z,1.90
2018-08-06T03:11:49.966Z,1.67
2018-08-06T03:14:18.552Z,2.10
2018-08-06T03:16:47.079Z,1.60
2018-08-06T03:19:15.582Z,1.70
2018-08-06T03:21:44.106Z,1.90
2018-08-06T03:24:12.650Z,1.73
2018-08-06T03:26:41.116Z,1.50
2018-08-06T03:29:09.623Z,1.60
2018-08-06T03:31:38.124Z,1.93
2018-08-06T03:34:06.678Z,1.80
2018-08-06T03:36:35.184Z,1.80
2018-08-06T03:39:04.661Z,1.63
2018-08-06T03:41:33.231Z,1.60
2018-08-06T03:44:01.733Z,1.70
2018-08-06T03:46:30.238Z,1.60
2018-08-06T03:48:58.775Z,1.80
2018-08-06T03:51:27.311Z,1.70
2018-08-06T03:53:55.923Z,1.70
2018-08-06T03:56:24.381Z,2.17
2018-08-06T03:58:53.504Z,1.77
2018-08-06T04:01:22.106Z,1.80
2018-08-06T04:03:50.612Z,1.80
2018-08-06T04:06:19.352Z,1.70
2018-08-06T04:08:48.456Z,2.10
2018-08-06T04:11:16.937Z,1.37
2018-08-06T04:13:45.819Z,1.80
2018-08-06T04:16:14.896Z,1.57
2018-08-06T04:18:43.542Z,2.00
2018-08-06T04:21:12.043Z,1.93
2018-08-06T04:23:40.551Z,2.10
2018-08-06T04:26:09.092Z,1.87
2018-08-06T04:28:37.600Z,1.90
2018-08-06T04:31:06.051Z,1.90
2018-08-06T04:33:35.528Z,2.17
2018-08-06T04:36:05.108Z,1.73
2018-08-06T04:38:33.688Z,2.03
2018-08-06T04:41:02.133Z,1.87
2018-08-06T04:43:30.897Z,2.20
2018-08-06T04:45:59.433Z,1.67
2018-08-06T04:48:27.869Z,2.00
2018-08-06T04:50:56.384Z,1.80
2018-08-06T04:53:24.907Z,2.10
2018-08-06T04:55:53.365Z,2.10
2018-08-06T04:58:21.859Z,1.93
2018-08-06T05:00:50.337Z,1.77
2018-08-06T05:03:18.873Z,1.77
2018-08-06T05:05:47.380Z,2.13
2018-08-06T05:08:15.907Z,2.10
2018-08-06T05:10:44.358Z,3.27
2018-08-06T05:13:12.554Z,2.13
2018-08-06T05:15:41.011Z,1.60
2018-08-06T05:18:09.507Z,2.10
2018-08-06T05:20:37.972Z,1.70
2018-08-06T05:23:06.707Z,4.10
2018-08-06T05:25:35.175Z,1.80
2018-08-06T05:28:03.696Z,1.70
2018-08-06T05:30:32.213Z,2.07
2018-08-06T05:33:00.725Z,2.00
2018-08-06T05:35:29.274Z,1.97
2018-08-06T05:37:58.107Z,1.90
2018-08-06T05:40:26.900Z,2.23
2018-08-06T05:42:55.701Z,3.20
2018-08-06T05:45:24.206Z,2.00
2018-08-06T05:47:52.763Z,1.90
2018-08-06T05:50:21.289Z,1.90
2018-08-06T05:52:49.776Z,1.87
2018-08-06T05:55:18.295Z,1.60
2018-08-06T05:57:46.823Z,2.10
2018-08-06T06:00:17.603Z,2.00
2018-08-06T06:02:46.452Z,1.60
2018-08-06T06:05:15.038Z,1.60
2018-08-06T06:07:43.554Z,1.83
2018-08-06T06:10:13.710Z,1.97
2018-08-06T06:12:42.189Z,1.87
2018-08-06T06:15:14.063Z,1.83
2018-08-06T06:17:43.467Z,2.20
2018-08-06T06:20:12.028Z,3.20
2018-08-06T06:22:40.490Z,2.10
2018-08-06T06:25:11.353Z,2.13
2018-08-06T06:27:39.904Z,1.87
2018-08-06T06:30:11.002Z,1.70
2018-08-06T06:32:39.737Z,2.10
2018-08-06T06:35:08.260Z,1.77
2018-08-06T06:37:36.794Z,2.00
2018-08-06T06:40:05.446Z,1.80
2018-08-06T06:42:34.079Z,1.83
2018-08-06T06:45:02.619Z,1.80
2018-08-06T06:47:31.085Z,2.10
2018-08-06T06:49:59.555Z,2.37
2018-08-06T06:52:28.386Z,1.93
2018-08-06T06:54:57.194Z,2.07
2018-08-06T06:57:25.679Z,2.20
2018-08-06T06:59:54.212Z,1.73
2018-08-06T07:02:22.689Z,2.60
2018-08-06T07:04:51.826Z,2.10
2018-08-06T07:07:20.328Z,1.97
2018-08-06T07:09:48.837Z,2.40
2018-08-06T07:12:17.294Z,1.90
2018-08-06T07:14:45.967Z,2.30
2018-08-06T07:17:14.913Z,2.07
2018-08-06T07:19:43.733Z,2.00
2018-08-06T07:22:12.342Z,1.90
2018-08-06T07:24:41.044Z,2.10
2018-08-06T07:27:09.516Z,1.70
2018-08-06T07:29:38.026Z,2.00
2018-08-06T07:32:06.644Z,2.00
2018-08-06T07:34:35.147Z,1.60
2018-08-06T07:37:03.645Z,2.23
2018-08-06T07:39:32.140Z,2.20
2018-08-06T07:42:00.660Z,2.60
2018-08-06T07:44:29.595Z,2.03
2018-08-06T07:46:58.149Z,2.00
2018-08-06T07:49:26.709Z,2.10
2018-08-06T07:51:55.292Z,1.97
2018-08-06T07:54:24.159Z,2.10
2018-08-06T07:56:52.845Z,2.10
2018-08-06T07:59:21.400Z,2.33
2018-08-06T08:01:50.074Z,1.90
2018-08-06T08:04:18.965Z,2.30
2018-08-06T08:06:47.521Z,2.27
2018-08-06T08:09:16.079Z,2.80
2018-08-06T08:11:47.610Z,2.13
2018-08-06T08:14:16.084Z,2.00
2018-08-06T08:16:44.582Z,2.40
2018-08-06T08:19:13.103Z,2.23
2018-08-06T08:21:41.932Z,2.17
2018-08-06T08:24:10.444Z,2.23
2018-08-06T08:26:38.955Z,2.20
2018-08-06T08:29:10.949Z,2.37
2018-08-06T08:31:39.448Z,2.57
2018-08-06T08:34:08.091Z,2.53
2018-08-06T08:36:36.999Z,2.20
2018-08-06T08:39:08.888Z,2.30
2018-08-06T08:41:37.368Z,2.10
2018-08-06T08:44:05.940Z,1.90
2018-08-06T08:46:34.441Z,2.00
2018-08-06T08:49:03.869Z,2.10
2018-08-06T08:51:32.384Z,2.37
2018-08-06T08:54:01.166Z,2.00
2018-08-06T08:56:29.667Z,2.10
2018-08-06T08:58:58.232Z,1.93
2018-08-06T09:01:26.892Z,1.90
2018-08-06T09:03:55.388Z,2.73
2018-08-06T09:06:24.249Z,2.37
2018-08-06T09:08:52.739Z,2.30
2018-08-06T09:11:21.227Z,2.30
2018-08-06T09:13:49.976Z,2.10
2018-08-06T09:16:18.496Z,2.50
2018-08-06T09:18:47.036Z,2.37
2018-08-06T09:21:15.817Z,2.27
2018-08-06T09:23:44.267Z,2.17
2018-08-06T09:26:12.784Z,2.10
2018-08-06T09:28:41.297Z,2.57
2018-08-06T09:31:09.860Z,2.20
2018-08-06T09:33:38.357Z,2.30
2018-08-06T09:36:06.917Z,2.20
2018-08-06T09:38:35.420Z,2.30
2018-08-06T09:41:03.947Z,2.63
2018-08-06T09:43:32.464Z,1.90
2018-08-06T09:46:01.006Z,1.93
2018-08-06T09:48:29.195Z,1.90
2018-08-06T09:50:57.704Z,2.10
2018-08-06T09:53:26.194Z,2.20
2018-08-06T09:55:54.698Z,2.23
2018-08-06T09:58:23.160Z,2.40
2018-08-06T10:00:56.965Z,2.30
2018-08-06T10:03:25.772Z,2.40
2018-08-06T10:05:54.391Z,2.20
2018-08-06T10:08:23.144Z,2.40
2018-08-06T10:10:51.659Z,2.40
2018-08-06T10:13:20.115Z,2.10
2018-08-06T10:15:48.891Z,2.70
2018-08-06T10:18:17.392Z,2.50
2018-08-06T10:20:45.902Z,2.70
2018-08-06T10:23:14.423Z,2.37
2018-08-06T10:25:43.168Z,2.50
2018-08-06T10:28:11.987Z,2.30
2018-08-06T10:30:40.545Z,2.67
2018-08-06T10:33:09.013Z,2.10
2018-08-06T10:35:37.519Z,2.20
2018-08-06T10:38:06.076Z,2.60
2018-08-06T10:40:34.585Z,2.90
2018-08-06T10:43:03.043Z,2.17
2018-08-06T10:45:31.815Z,2.47
2018-08-06T10:48:00.751Z,2.30
2018-08-06T10:50:29.288Z,2.47
2018-08-06T10:52:57.752Z,2.60
2018-08-06T10:55:26.280Z,2.43
2018-08-06T10:57:54.853Z,2.40
2018-08-06T11:00:24.068Z,2.27
2018-08-06T11:02:52.715Z,2.13
2018-08-06T11:05:21.688Z,2.30
2018-08-06T11:07:50.268Z,2.60
2018-08-06T11:10:20.033Z,2.60
2018-08-06T11:12:48.865Z,2.53
2018-08-06T11:15:18.730Z,2.33
2018-08-06T11:17:47.487Z,2.60
2018-08-06T11:20:16.820Z,2.80
2018-08-06T11:22:45.379Z,2.33
2018-08-06T11:25:17.969Z,2.20
2018-08-06T11:27:46.656Z,2.30
2018-08-06T11:30:17.076Z,2.40
2018-08-06T11:32:46.242Z,2.50
2018-08-06T11:35:15.342Z,2.13
2018-08-06T11:37:43.924Z,2.50
2018-08-06T11:40:13.456Z,2.60
2018-08-06T11:42:42.774Z,2.60
2018-08-06T11:45:15.774Z,2.60
2018-08-06T11:47:44.341Z,2.20
2018-08-06T11:50:12.829Z,2.37
2018-08-06T11:52:41.388Z,2.40
2018-08-06T11:55:10.367Z,2.83
2018-08-06T11:57:38.881Z,3.00
2018-08-06T12:00:12.235Z,2.53
2018-08-06T12:02:40.763Z,2.67
2018-08-06T12:05:09.335Z,2.20
2018-08-06T12:07:38.324Z,2.60
2018-08-06T12:10:08.867Z,2.20
2018-08-06T12:12:37.362Z,2.47
2018-08-06T12:15:06.812Z,2.30
2018-08-06T12:17:35.652Z,2.40
2018-08-06T12:20:06.764Z,2.27
2018-08-06T12:22:35.339Z,2.40
2018-08-06T12:25:04.421Z,2.33
2018-08-06T12:27:32.955Z,3.00
2018-08-06T12:30:01.114Z,2.63
2018-08-06T12:32:29.639Z,3.47
2018-08-06T12:34:58.120Z,8.50
2018-08-06T12:37:26.663Z,2.73
2018-08-06T12:39:55.404Z,2.67
2018-08-06T12:42:24.219Z,2.40
2018-08-06T12:44:52.697Z,2.57
2018-08-06T12:47:21.219Z,2.87
2018-08-06T12:49:49.703Z,2.23
2018-08-06T12:52:18.363Z,2.43
2018-08-06T12:54:46.867Z,2.70
2018-08-06T12:57:15.515Z,2.50
2018-08-06T12:59:44.480Z,3.00
2018-08-06T13:02:13.351Z,2.20
2018-08-06T13:04:41.836Z,3.17
2018-08-06T13:07:10.410Z,2.50
2018-08-06T13:09:38.883Z,2.50
2018-08-06T13:12:07.440Z,2.60
2018-08-06T13:14:36.157Z,2.63
2018-08-06T13:17:04.701Z,3.03
2018-08-06T13:19:33.220Z,2.90
2018-08-06T13:22:01.803Z,2.90
2018-08-06T13:24:30.584Z,2.73
2018-08-06T13:26:59.136Z,2.90
2018-08-06T13:29:27.692Z,2.60
2018-08-06T13:31:56.228Z,2.67
2018-08-06T13:34:24.680Z,2.60
2018-08-06T13:36:53.283Z,2.97
2018-08-06T13:39:21.759Z,2.70
2018-08-06T13:41:50.300Z,3.10
2018-08-06T13:44:18.868Z,2.73
2018-08-06T13:46:47.411Z,2.80
2018-08-06T13:49:16.241Z,2.80
2018-08-06T13:51:45.125Z,2.70
2018-08-06T13:54:13.675Z,2.60
2018-08-06T13:56:42.183Z,2.77
2018-08-06T13:59:10.676Z,2.63
2018-08-06T14:01:39.156Z,3.17
2018-08-06T14:04:07.709Z,3.57
2018-08-06T14:06:36.224Z,2.97
2018-08-06T14:09:07.955Z,2.83
2018-08-06T14:11:36.465Z,3.00
2018-08-06T14:14:04.990Z,2.90
2018-08-06T14:16:33.532Z,3.00
2018-08-06T14:19:02.057Z,2.90
2018-08-06T14:21:30.592Z,3.00
2018-08-06T14:23:59.422Z,3.50
2018-08-06T14:26:28.535Z,2.67
2018-08-06T14:28:56.768Z,3.10
2018-08-06T14:31:25.307Z,3.00
2018-08-06T14:33:53.831Z,2.97
2018-08-06T14:36:22.372Z,2.90
2018-08-06T14:38:50.880Z,2.97
2018-08-06T14:41:19.354Z,2.63
2018-08-06T14:43:48.447Z,2.70
2018-08-06T14:46:16.969Z,3.00
2018-08-06T14:48:45.479Z,2.80
2018-08-06T14:51:13.956Z,3.47
2018-08-06T14:53:42.443Z,3.03
2018-08-06T14:56:11.092Z,3.10
2018-08-06T14:58:39.945Z,3.50
2018-08-06T15:01:08.484Z,3.30
2018-08-06T15:03:37.035Z,3.23
2018-08-06T15:06:05.669Z,2.90
2018-08-06T15:08:34.487Z,2.90
2018-08-06T15:11:03.138Z,2.90
2018-08-06T15:13:31.552Z,3.50
2018-08-06T15:16:00.016Z,2.93
2018-08-06T15:18:30.433Z,3.50
2018-08-06T15:20:58.926Z,3.20
2018-08-06T15:23:27.463Z,3.63
2018-08-06T15:25:56.271Z,3.07
2018-08-06T15:28:24.779Z,3.13
2018-08-06T15:30:53.297Z,3.13
2018-08-06T15:33:21.849Z,2.83
2018-08-06T15:35:50.323Z,3.00
2018-08-06T15:38:18.868Z,3.33
2018-08-06T15:40:47.406Z,3.43
2018-08-06T15:43:15.910Z,2.97
2018-08-06T15:45:44.405Z,3.10
2018-08-06T15:48:12.908Z,3.37
2018-08-06T15:50:41.673Z,3.47
2018-08-06T15:53:10.446Z,3.30
2018-08-06T15:55:39.187Z,3.00
2018-08-06T15:58:07.711Z,3.43
2018-08-06T16:00:36.278Z,3.70
2018-08-06T16:03:04.960Z,3.10
2018-08-06T16:05:33.722Z,2.60
2018-08-06T16:08:02.315Z,3.70
2018-08-06T16:10:30.831Z,3.10
2018-08-06T16:12:59.349Z,3.00
2018-08-06T16:15:27.851Z,3.00
2018-08-06T16:17:56.404Z,3.30
2018-08-06T16:20:24.908Z,3.00
2018-08-06T16:22:53.739Z,3.20
2018-08-06T16:25:22.271Z,3.30
2018-08-06T16:27:50.728Z,3.57
2018-08-06T16:30:21.839Z,2.87
2018-08-06T16:32:50.610Z,3.50
2018-08-06T16:35:21.145Z,3.00
2018-08-06T16:37:50.949Z,3.27
2018-08-06T16:40:19.456Z,3.30
2018-08-06T16:42:48.563Z,2.90
2018-08-06T16:45:17.189Z,3.70
2018-08-06T16:47:46.032Z,2.80
2018-08-06T16:50:15.955Z,3.70
2018-08-06T16:52:44.353Z,3.40
2018-08-06T16:55:12.816Z,3.73
2018-08-06T16:57:41.443Z,3.50
2018-08-06T17:00:14.511Z,3.30
2018-08-06T17:02:43.074Z,3.50
2018-08-06T17:05:13.112Z,3.60
2018-08-06T17:07:42.413Z,3.37
2018-08-06T17:10:13.852Z,3.73
2018-08-06T17:12:43.459Z,3.60
2018-08-06T17:15:13.536Z,3.07
2018-08-06T17:17:42.372Z,3.47
2018-08-06T17:20:15.052Z,3.80
2018-08-06T17:22:44.730Z,3.70
2018-08-06T17:25:13.836Z,3.50
2018-08-06T17:27:42.705Z,3.20
2018-08-06T17:30:12.312Z,3.30
2018-08-06T17:32:41.230Z,3.27
2018-08-06T17:35:11.372Z,3.60
2018-08-06T17:37:39.927Z,3.70
2018-08-06T17:40:10.904Z,4.13
2018-08-06T17:42:39.721Z,4.20
2018-08-06T17:45:13.145Z,4.50
2018-08-06T17:47:41.699Z,4.30
2018-08-06T17:50:12.624Z,5.73
2018-08-06T17:52:41.356Z,5.10
2018-08-06T17:55:10.033Z,4.43
2018-08-06T17:57:38.507Z,4.13
2018-08-06T18:00:08.235Z,3.97
2018-08-06T18:02:37.211Z,4.00
2018-08-06T18:05:06.883Z,4.13
2018-08-06T18:07:35.404Z,3.77
2018-08-06T18:10:04.599Z,3.60
2018-08-06T18:12:33.383Z,3.83
2018-08-06T18:15:02.232Z,3.60
2018-08-06T18:17:31.065Z,3.90
2018-08-06T18:19:59.628Z,4.20
2018-08-06T18:22:28.151Z,3.53
2018-08-06T18:24:56.745Z,4.00
2018-08-06T18:27:25.322Z,3.30
2018-08-06T18:29:53.889Z,4.13
2018-08-06T18:32:22.672Z,4.33
2018-08-06T18:34:51.190Z,4.07
2018-08-06T18:37:19.742Z,4.50
2018-08-06T18:39:48.250Z,4.47
2018-08-06T18:42:16.763Z,4.30
2018-08-06T18:44:45.556Z,4.70
2018-08-06T18:47:14.039Z,4.47
2018-08-06T18:49:42.887Z,3.90
2018-08-06T18:52:11.457Z,4.70
2018-08-06T18:54:39.967Z,3.73
2018-08-06T18:57:08.488Z,4.20
2018-08-06T18:59:37.036Z,4.43
2018-08-06T19:02:05.812Z,4.30
2018-08-06T19:04:34.463Z,4.80
2018-08-06T19:07:03.296Z,4.60
2018-08-06T19:09:33.733Z,4.53
2018-08-06T19:12:08.037Z,4.77
2018-08-06T19:14:36.548Z,4.10
2018-08-06T19:17:05.498Z,4.70
2018-08-06T19:19:34.034Z,4.50
2018-08-06T19:22:02.236Z,4.80
2018-08-06T19:24:36.046Z,4.87
2018-08-06T19:27:04.579Z,4.30
2018-08-06T19:29:33.131Z,4.43
2018-08-06T19:32:01.626Z,5.13
2018-08-06T19:34:30.469Z,3.77
2018-08-06T19:37:04.302Z,4.07
2018-08-06T19:39:32.827Z,4.30
2018-08-06T19:42:01.369Z,4.03
2018-08-06T19:44:29.893Z,3.50
2018-08-06T19:46:58.887Z,3.97
2018-08-06T19:49:32.631Z,3.83
2018-08-06T19:52:01.184Z,4.20
2018-08-06T19:54:29.683Z,3.90
2018-08-06T19:56:58.244Z,4.10
2018-08-06T19:59:26.741Z,4.70
2018-08-06T20:04:48.788Z,4.03
2018-08-06T20:07:17.314Z,3.63
2018-08-06T20:09:45.832Z,4.40
2018-08-06T20:12:14.323Z,4.07
2018-08-06T20:14:42.857Z,3.43
2018-08-06T20:17:11.444Z,3.90
2018-08-06T20:19:40.012Z,4.10
2018-08-06T20:22:14.214Z,3.37
2018-08-06T20:24:42.745Z,3.67
2018-08-06T20:27:11.661Z,3.57
2018-08-06T20:29:40.269Z,3.53
2018-08-06T20:32:08.825Z,3.67
2018-08-06T20:34:37.355Z,4.20
2018-08-06T20:37:06.155Z,3.87
2018-08-06T20:39:34.944Z,3.50
2018-08-06T20:42:03.502Z,3.67
2018-08-06T20:44:32.315Z,3.70
2018-08-06T20:47:01.094Z,3.60
2018-08-06T20:49:29.574Z,3.60
2018-08-06T20:51:58.392Z,3.20
2018-08-06T20:54:27.249Z,3.23
2018-08-06T20:56:55.797Z,4.67
2018-08-06T20:59:30.643Z,3.63
2018-08-06T21:01:59.442Z,3.27
2018-08-06T21:04:27.938Z,3.57
2018-08-06T21:06:56.458Z,3.67
2018-08-06T21:09:24.617Z,3.33
2018-08-06T21:11:53.199Z,3.00
2018-08-06T21:14:21.970Z,4.13
2018-08-06T21:16:50.459Z,3.57
2018-08-06T21:19:18.999Z,3.93
2018-08-06T21:21:47.509Z,3.00
2018-08-06T21:24:16.047Z,3.97
2018-08-06T21:26:44.506Z,3.80
2018-08-06T21:29:13.130Z,3.60
2018-08-06T21:31:41.656Z,3.70
2018-08-06T21:34:10.265Z,3.47
2018-08-06T21:36:38.786Z,3.10
2018-08-06T21:39:09.948Z,3.23
2018-08-06T21:41:39.665Z,3.20
2018-08-06T21:44:08.653Z,3.70
2018-08-06T21:46:37.422Z,3.77
2018-08-06T21:49:06.271Z,3.17
2018-08-06T21:51:35.153Z,3.07
2018-08-06T21:54:03.951Z,3.40
2018-08-06T21:56:32.481Z,3.50
2018-08-06T21:59:00.968Z,3.27
2018-08-06T22:01:29.790Z,3.20
2018-08-06T22:03:58.322Z,3.30
2018-08-06T22:06:26.862Z,2.80
2018-08-06T22:08:55.699Z,2.90
2018-08-06T22:11:24.574Z,3.57
2018-08-06T22:13:53.450Z,3.20
2018-08-06T22:16:22.000Z,3.37
2018-08-06T22:18:51.121Z,3.23
2018-08-06T22:21:19.558Z,3.57
2018-08-06T22:23:48.338Z,3.33
2018-08-06T22:26:16.866Z,2.53
2018-08-06T22:28:45.709Z,3.17
2018-08-06T22:31:14.271Z,3.43
2018-08-06T22:33:42.782Z,3.27
2018-08-06T22:36:11.286Z,4.13
2018-08-06T22:38:40.079Z,4.33
2018-08-06T22:41:08.610Z,3.90
2018-08-06T22:43:37.091Z,4.40
2018-08-06T22:46:06.206Z,3.93
2018-08-06T22:48:34.906Z,4.50
2018-08-06T22:51:03.759Z,3.63
2018-08-06T22:53:32.549Z,3.87
2018-08-06T22:56:06.986Z,3.83
2018-08-06T22:58:35.531Z,3.00
2018-08-06T23:01:04.128Z,3.47
2018-08-06T23:03:33.014Z,3.40
2018-08-06T23:06:01.528Z,3.50
2018-08-06T23:08:30.431Z,3.80
2018-08-06T23:10:58.983Z,3.53
2018-08-06T23:13:27.529Z,3.40
2018-08-06T23:15:56.014Z,3.10
2018-08-06T23:18:24.788Z,3.60
2018-08-06T23:20:53.286Z,3.20
2018-08-06T23:23:21.789Z,3.13
2018-08-06T23:25:50.290Z,3.20
2018-08-06T23:28:19.133Z,3.20
2018-08-06T23:30:47.639Z,3.03
2018-08-06T23:33:16.125Z,2.97
2018-08-06T23:35:44.974Z,3.00
2018-08-06T23:38:13.495Z,3.00
2018-08-06T23:40:42.048Z,3.40
2018-08-06T23:43:10.545Z,2.97
2018-08-06T23:45:39.399Z,3.10
2018-08-06T23:48:07.883Z,2.60
2018-08-06T23:50:36.359Z,3.10
2018-08-06T23:53:05.034Z,3.03
2018-08-06T23:55:34.755Z,2.90
2018-08-06T23:58:03.555Z,2.53
